sensor_id;sensor_type;location;lat;lon;timestamp;P1;durP1;ratioP1;P2;durP2;ratioP2
34317;SDS011;20582;52.196;20.952;2022-07-22T00:01:15;13.52;;;5.97;;
34317;SDS011;20582;52.196;20.952;2022-07-22T00:03:41;13.90;;;6.30;;
34317;SDS011;20582;52.196;20.952;2022-07-22T00:06:07;12.63;;;5.85;;
34317;SDS011;20582;52.196;20.952;2022-07-22T00:08:33;18.05;;;6.57;;
34317;SDS011;20582;52.196;20.952;2022-07-22T00:10:59;17.67;;;7.40;;
34317;SDS011;20582;52.196;20.952;2022-07-22T00:13:25;17.33;;;6.80;;
34317;SDS011;20582;52.196;20.952;2022-07-22T00:15:51;21.73;;;6.78;;
34317;SDS011;20582;52.196;20.952;2022-07-22T00:18:17;13.57;;;6.72;;
34317;SDS011;20582;52.196;20.952;2022-07-22T00:20:43;12.30;;;6.25;;
34317;SDS011;20582;52.196;20.952;2022-07-22T00:23:09;13.50;;;6.57;;
34317;SDS011;20582;52.196;20.952;2022-07-22T00:25:35;13.23;;;6.53;;
34317;SDS011;20582;52.196;20.952;2022-07-22T00:28:01;13.95;;;6.63;;
34317;SDS011;20582;52.196;20.952;2022-07-22T00:30:27;11.18;;;6.65;;
34317;SDS011;20582;52.196;20.952;2022-07-22T00:32:53;12.40;;;6.65;;
34317;SDS011;20582;52.196;20.952;2022-07-22T00:35:19;16.45;;;7.28;;
34317;SDS011;20582;52.196;20.952;2022-07-22T00:37:45;17.60;;;7.30;;
34317;SDS011;20582;52.196;20.952;2022-07-22T00:40:12;12.75;;;7.07;;
34317;SDS011;20582;52.196;20.952;2022-07-22T00:42:38;12.82;;;7.30;;
34317;SDS011;20582;52.196;20.952;2022-07-22T00:45:04;16.67;;;7.40;;
34317;SDS011;20582;52.196;20.952;2022-07-22T00:47:31;12.35;;;6.80;;
34317;SDS011;20582;52.196;20.952;2022-07-22T00:49:57;12.93;;;6.78;;
34317;SDS011;20582;52.196;20.952;2022-07-22T00:52:23;11.88;;;6.82;;
34317;SDS011;20582;52.196;20.952;2022-07-22T00:54:49;12.45;;;6.40;;
34317;SDS011;20582;52.196;20.952;2022-07-22T00:57:15;13.50;;;6.47;;
34317;SDS011;20582;52.196;20.952;2022-07-22T00:59:41;13.43;;;6.80;;
34317;SDS011;20582;52.196;20.952;2022-07-22T01:02:08;14.35;;;6.70;;
34317;SDS011;20582;52.196;20.952;2022-07-22T01:04:34;13.45;;;7.15;;
34317;SDS011;20582;52.196;20.952;2022-07-22T01:07:00;12.68;;;6.75;;
34317;SDS011;20582;52.196;20.952;2022-07-22T01:09:27;12.32;;;6.15;;
34317;SDS011;20582;52.196;20.952;2022-07-22T01:11:53;10.88;;;6.30;;
34317;SDS011;20582;52.196;20.952;2022-07-22T01:14:19;16.13;;;7.53;;
34317;SDS011;20582;52.196;20.952;2022-07-22T01:16:45;14.13;;;6.45;;
34317;SDS011;20582;52.196;20.952;2022-07-22T01:19:11;10.25;;;6.10;;
34317;SDS011;20582;52.196;20.952;2022-07-22T01:21:37;13.38;;;6.40;;
34317;SDS011;20582;52.196;20.952;2022-07-22T01:24:04;13.40;;;6.30;;
34317;SDS011;20582;52.196;20.952;2022-07-22T01:26:30;13.43;;;6.13;;
34317;SDS011;20582;52.196;20.952;2022-07-22T01:28:58;13.35;;;6.60;;
34317;SDS011;20582;52.196;20.952;2022-07-22T01:31:24;12.98;;;6.45;;
34317;SDS011;20582;52.196;20.952;2022-07-22T01:33:50;14.15;;;6.68;;
34317;SDS011;20582;52.196;20.952;2022-07-22T01:36:16;11.95;;;6.40;;
34317;SDS011;20582;52.196;20.952;2022-07-22T01:38:42;10.80;;;6.28;;
34317;SDS011;20582;52.196;20.952;2022-07-22T01:41:08;14.07;;;6.35;;
34317;SDS011;20582;52.196;20.952;2022-07-22T01:43:35;13.93;;;6.72;;
34317;SDS011;20582;52.196;20.952;2022-07-22T01:46:01;10.70;;;5.82;;
34317;SDS011;20582;52.196;20.952;2022-07-22T01:48:27;11.27;;;5.63;;
34317;SDS011;20582;52.196;20.952;2022-07-22T01:50:53;13.77;;;6.90;;
34317;SDS011;20582;52.196;20.952;2022-07-22T01:53:19;9.00;;;6.03;;
34317;SDS011;20582;52.196;20.952;2022-07-22T01:55:45;13.27;;;6.75;;
34317;SDS011;20582;52.196;20.952;2022-07-22T01:58:12;12.38;;;5.97;;
34317;SDS011;20582;52.196;20.952;2022-07-22T02:00:38;11.27;;;6.78;;
34317;SDS011;20582;52.196;20.952;2022-07-22T02:03:04;14.35;;;6.72;;
34317;SDS011;20582;52.196;20.952;2022-07-22T02:05:31;13.07;;;6.38;;
34317;SDS011;20582;52.196;20.952;2022-07-22T02:08:04;13.63;;;6.53;;
34317;SDS011;20582;52.196;20.952;2022-07-22T02:10:30;13.75;;;6.47;;
34317;SDS011;20582;52.196;20.952;2022-07-22T02:12:56;11.65;;;6.97;;
34317;SDS011;20582;52.196;20.952;2022-07-22T02:15:22;15.00;;;7.20;;
34317;SDS011;20582;52.196;20.952;2022-07-22T02:17:49;13.63;;;7.50;;
34317;SDS011;20582;52.196;20.952;2022-07-22T02:20:15;14.63;;;7.40;;
34317;SDS011;20582;52.196;20.952;2022-07-22T02:22:41;11.48;;;7.13;;
34317;SDS011;20582;52.196;20.952;2022-07-22T02:25:07;13.38;;;7.43;;
34317;SDS011;20582;52.196;20.952;2022-07-22T02:27:33;15.98;;;7.72;;
34317;SDS011;20582;52.196;20.952;2022-07-22T02:29:59;10.80;;;6.82;;
34317;SDS011;20582;52.196;20.952;2022-07-22T02:32:25;13.43;;;7.70;;
34317;SDS011;20582;52.196;20.952;2022-07-22T02:34:51;16.08;;;8.13;;
34317;SDS011;20582;52.196;20.952;2022-07-22T02:37:18;13.55;;;7.63;;
34317;SDS011;20582;52.196;20.952;2022-07-22T02:39:44;13.07;;;7.60;;
34317;SDS011;20582;52.196;20.952;2022-07-22T02:42:10;12.00;;;7.22;;
34317;SDS011;20582;52.196;20.952;2022-07-22T02:44:36;13.20;;;7.57;;
34317;SDS011;20582;52.196;20.952;2022-07-22T02:47:02;13.93;;;7.47;;
34317;SDS011;20582;52.196;20.952;2022-07-22T02:49:28;11.25;;;7.00;;
34317;SDS011;20582;52.196;20.952;2022-07-22T02:51:54;16.05;;;7.18;;
34317;SDS011;20582;52.196;20.952;2022-07-22T02:54:20;14.82;;;7.45;;
34317;SDS011;20582;52.196;20.952;2022-07-22T02:56:46;13.18;;;7.07;;
34317;SDS011;20582;52.196;20.952;2022-07-22T02:59:11;14.80;;;7.70;;
34317;SDS011;20582;52.196;20.952;2022-07-22T03:01:38;16.30;;;7.40;;
34317;SDS011;20582;52.196;20.952;2022-07-22T03:04:04;15.95;;;7.57;;
34317;SDS011;20582;52.196;20.952;2022-07-22T03:06:30;13.80;;;7.68;;
34317;SDS011;20582;52.196;20.952;2022-07-22T03:08:56;13.48;;;7.40;;
34317;SDS011;20582;52.196;20.952;2022-07-22T03:11:21;14.68;;;8.23;;
34317;SDS011;20582;52.196;20.952;2022-07-22T03:13:47;14.60;;;7.28;;
34317;SDS011;20582;52.196;20.952;2022-07-22T03:16:13;14.52;;;8.10;;
34317;SDS011;20582;52.196;20.952;2022-07-22T03:18:39;16.13;;;7.97;;
34317;SDS011;20582;52.196;20.952;2022-07-22T03:21:06;15.90;;;8.07;;
34317;SDS011;20582;52.196;20.952;2022-07-22T03:23:32;13.02;;;7.82;;
34317;SDS011;20582;52.196;20.952;2022-07-22T03:25:58;14.57;;;7.53;;
34317;SDS011;20582;52.196;20.952;2022-07-22T03:28:24;17.90;;;8.20;;
34317;SDS011;20582;52.196;20.952;2022-07-22T03:30:50;17.77;;;8.02;;
34317;SDS011;20582;52.196;20.952;2022-07-22T03:33:16;13.48;;;8.30;;
34317;SDS011;20582;52.196;20.952;2022-07-22T03:35:42;19.38;;;7.95;;
34317;SDS011;20582;52.196;20.952;2022-07-22T03:38:08;13.60;;;7.60;;
34317;SDS011;20582;52.196;20.952;2022-07-22T03:40:34;13.73;;;7.50;;
34317;SDS011;20582;52.196;20.952;2022-07-22T03:43:00;21.20;;;7.70;;
34317;SDS011;20582;52.196;20.952;2022-07-22T03:45:26;15.02;;;8.25;;
34317;SDS011;20582;52.196;20.952;2022-07-22T03:47:52;19.35;;;8.30;;
34317;SDS011;20582;52.196;20.952;2022-07-22T03:50:19;17.88;;;11.40;;
34317;SDS011;20582;52.196;20.952;2022-07-22T03:52:45;21.92;;;9.38;;
34317;SDS011;20582;52.196;20.952;2022-07-22T03:55:11;18.58;;;8.60;;
34317;SDS011;20582;52.196;20.952;2022-07-22T03:57:37;18.58;;;8.02;;
34317;SDS011;20582;52.196;20.952;2022-07-22T04:00:04;17.27;;;7.80;;
34317;SDS011;20582;52.196;20.952;2022-07-22T04:02:31;16.27;;;8.25;;
34317;SDS011;20582;52.196;20.952;2022-07-22T04:04:57;15.88;;;7.75;;
34317;SDS011;20582;52.196;20.952;2022-07-22T04:07:23;17.02;;;7.80;;
34317;SDS011;20582;52.196;20.952;2022-07-22T04:09:49;18.98;;;8.10;;
34317;SDS011;20582;52.196;20.952;2022-07-22T04:12:15;17.73;;;8.90;;
34317;SDS011;20582;52.196;20.952;2022-07-22T04:14:41;17.55;;;7.70;;
34317;SDS011;20582;52.196;20.952;2022-07-22T04:17:07;20.02;;;8.80;;
34317;SDS011;20582;52.196;20.952;2022-07-22T04:19:33;19.23;;;9.00;;
34317;SDS011;20582;52.196;20.952;2022-07-22T04:21:59;20.98;;;8.32;;
34317;SDS011;20582;52.196;20.952;2022-07-22T04:24:25;17.42;;;8.20;;
34317;SDS011;20582;52.196;20.952;2022-07-22T04:26:51;21.08;;;8.88;;
34317;SDS011;20582;52.196;20.952;2022-07-22T04:29:17;24.38;;;8.20;;
34317;SDS011;20582;52.196;20.952;2022-07-22T04:31:43;23.95;;;7.78;;
34317;SDS011;20582;52.196;20.952;2022-07-22T04:34:08;21.45;;;8.25;;
34317;SDS011;20582;52.196;20.952;2022-07-22T04:36:34;16.58;;;7.03;;
34317;SDS011;20582;52.196;20.952;2022-07-22T04:39:00;19.25;;;7.63;;
34317;SDS011;20582;52.196;20.952;2022-07-22T04:41:26;15.88;;;7.75;;
34317;SDS011;20582;52.196;20.952;2022-07-22T04:43:52;19.38;;;7.78;;
34317;SDS011;20582;52.196;20.952;2022-07-22T04:46:18;16.70;;;7.07;;
34317;SDS011;20582;52.196;20.952;2022-07-22T04:48:44;16.15;;;6.97;;
34317;SDS011;20582;52.196;20.952;2022-07-22T04:51:10;14.15;;;7.10;;
34317;SDS011;20582;52.196;20.952;2022-07-22T04:53:36;12.93;;;6.72;;
34317;SDS011;20582;52.196;20.952;2022-07-22T04:56:02;12.73;;;6.85;;
34317;SDS011;20582;52.196;20.952;2022-07-22T04:58:28;14.48;;;6.70;;
34317;SDS011;20582;52.196;20.952;2022-07-22T05:00:54;15.13;;;6.28;;
34317;SDS011;20582;52.196;20.952;2022-07-22T05:03:20;19.10;;;6.95;;
34317;SDS011;20582;52.196;20.952;2022-07-22T05:05:47;12.82;;;5.85;;
34317;SDS011;20582;52.196;20.952;2022-07-22T05:08:13;13.13;;;6.25;;
34317;SDS011;20582;52.196;20.952;2022-07-22T05:10:39;12.35;;;6.00;;
34317;SDS011;20582;52.196;20.952;2022-07-22T05:13:05;11.65;;;5.82;;
34317;SDS011;20582;52.196;20.952;2022-07-22T05:15:31;13.40;;;6.57;;
34317;SDS011;20582;52.196;20.952;2022-07-22T05:17:57;11.13;;;5.97;;
34317;SDS011;20582;52.196;20.952;2022-07-22T05:20:22;15.20;;;5.82;;
34317;SDS011;20582;52.196;20.952;2022-07-22T05:22:48;13.57;;;5.78;;
34317;SDS011;20582;52.196;20.952;2022-07-22T05:25:14;16.05;;;5.90;;
34317;SDS011;20582;52.196;20.952;2022-07-22T05:27:49;15.68;;;5.90;;
34317;SDS011;20582;52.196;20.952;2022-07-22T05:30:15;10.52;;;5.53;;
34317;SDS011;20582;52.196;20.952;2022-07-22T05:32:41;13.35;;;5.93;;
34317;SDS011;20582;52.196;20.952;2022-07-22T05:35:07;13.73;;;5.07;;
34317;SDS011;20582;52.196;20.952;2022-07-22T05:37:33;12.77;;;5.55;;
34317;SDS011;20582;52.196;20.952;2022-07-22T05:39:59;11.73;;;6.07;;
34317;SDS011;20582;52.196;20.952;2022-07-22T05:42:25;13.88;;;5.85;;
34317;SDS011;20582;52.196;20.952;2022-07-22T05:44:51;12.13;;;5.20;;
34317;SDS011;20582;52.196;20.952;2022-07-22T05:47:17;12.25;;;5.55;;
34317;SDS011;20582;52.196;20.952;2022-07-22T05:49:43;12.68;;;5.32;;
34317;SDS011;20582;52.196;20.952;2022-07-22T05:52:10;14.45;;;6.70;;
34317;SDS011;20582;52.196;20.952;2022-07-22T05:54:36;14.88;;;5.53;;
34317;SDS011;20582;52.196;20.952;2022-07-22T05:57:02;12.98;;;6.10;;
34317;SDS011;20582;52.196;20.952;2022-07-22T05:59:28;13.40;;;5.45;;
34317;SDS011;20582;52.196;20.952;2022-07-22T06:01:54;16.63;;;5.82;;
34317;SDS011;20582;52.196;20.952;2022-07-22T06:04:20;18.13;;;5.50;;
34317;SDS011;20582;52.196;20.952;2022-07-22T06:06:46;15.88;;;5.85;;
34317;SDS011;20582;52.196;20.952;2022-07-22T06:09:12;11.15;;;5.68;;
34317;SDS011;20582;52.196;20.952;2022-07-22T06:11:38;12.93;;;5.75;;
34317;SDS011;20582;52.196;20.952;2022-07-22T06:14:04;14.45;;;5.63;;
34317;SDS011;20582;52.196;20.952;2022-07-22T06:16:30;12.60;;;5.28;;
34317;SDS011;20582;52.196;20.952;2022-07-22T06:18:57;13.05;;;5.50;;
34317;SDS011;20582;52.196;20.952;2022-07-22T06:21:23;12.40;;;5.30;;
34317;SDS011;20582;52.196;20.952;2022-07-22T06:23:49;11.98;;;5.60;;
34317;SDS011;20582;52.196;20.952;2022-07-22T06:26:15;18.75;;;5.90;;
34317;SDS011;20582;52.196;20.952;2022-07-22T06:28:41;12.43;;;5.32;;
34317;SDS011;20582;52.196;20.952;2022-07-22T06:31:07;15.10;;;5.80;;
34317;SDS011;20582;52.196;20.952;2022-07-22T06:33:33;10.65;;;5.07;;
34317;SDS011;20582;52.196;20.952;2022-07-22T06:35:59;10.32;;;5.00;;
34317;SDS011;20582;52.196;20.952;2022-07-22T06:38:25;12.35;;;5.28;;
34317;SDS011;20582;52.196;20.952;2022-07-22T06:40:51;11.93;;;4.90;;
34317;SDS011;20582;52.196;20.952;2022-07-22T06:43:17;14.25;;;5.57;;
34317;SDS011;20582;52.196;20.952;2022-07-22T06:45:43;12.63;;;5.30;;
34317;SDS011;20582;52.196;20.952;2022-07-22T06:48:09;13.35;;;5.28;;
34317;SDS011;20582;52.196;20.952;2022-07-22T06:50:35;17.70;;;5.68;;
34317;SDS011;20582;52.196;20.952;2022-07-22T06:53:01;15.55;;;5.97;;
34317;SDS011;20582;52.196;20.952;2022-07-22T06:55:27;11.68;;;5.45;;
34317;SDS011;20582;52.196;20.952;2022-07-22T06:57:53;13.38;;;5.15;;
34317;SDS011;20582;52.196;20.952;2022-07-22T07:00:19;12.10;;;5.32;;
34317;SDS011;20582;52.196;20.952;2022-07-22T07:02:46;9.15;;;5.55;;
34317;SDS011;20582;52.196;20.952;2022-07-22T07:05:12;16.52;;;5.45;;
34317;SDS011;20582;52.196;20.952;2022-07-22T07:07:38;19.65;;;5.90;;
34317;SDS011;20582;52.196;20.952;2022-07-22T07:10:04;12.23;;;5.50;;
34317;SDS011;20582;52.196;20.952;2022-07-22T07:12:30;16.75;;;5.53;;
34317;SDS011;20582;52.196;20.952;2022-07-22T07:14:56;14.27;;;5.70;;
34317;SDS011;20582;52.196;20.952;2022-07-22T07:17:22;14.35;;;5.90;;
34317;SDS011;20582;52.196;20.952;2022-07-22T07:19:49;16.58;;;5.78;;
34317;SDS011;20582;52.196;20.952;2022-07-22T07:22:15;12.18;;;5.70;;
34317;SDS011;20582;52.196;20.952;2022-07-22T07:24:41;11.85;;;5.30;;
34317;SDS011;20582;52.196;20.952;2022-07-22T07:27:07;15.38;;;5.40;;
34317;SDS011;20582;52.196;20.952;2022-07-22T07:29:33;12.60;;;5.72;;
34317;SDS011;20582;52.196;20.952;2022-07-22T07:31:59;12.55;;;5.18;;
34317;SDS011;20582;52.196;20.952;2022-07-22T07:34:25;12.27;;;4.82;;
34317;SDS011;20582;52.196;20.952;2022-07-22T07:36:51;13.20;;;6.35;;
34317;SDS011;20582;52.196;20.952;2022-07-22T07:39:17;16.65;;;5.30;;
34317;SDS011;20582;52.196;20.952;2022-07-22T07:41:43;14.38;;;6.03;;
34317;SDS011;20582;52.196;20.952;2022-07-22T07:44:09;14.27;;;5.95;;
34317;SDS011;20582;52.196;20.952;2022-07-22T07:46:35;15.13;;;6.28;;
34317;SDS011;20582;52.196;20.952;2022-07-22T07:49:01;9.75;;;5.80;;
34317;SDS011;20582;52.196;20.952;2022-07-22T07:51:27;15.57;;;5.70;;
34317;SDS011;20582;52.196;20.952;2022-07-22T07:53:53;13.77;;;6.30;;
34317;SDS011;20582;52.196;20.952;2022-07-22T07:56:19;13.30;;;6.35;;
34317;SDS011;20582;52.196;20.952;2022-07-22T07:58:45;19.08;;;6.43;;
34317;SDS011;20582;52.196;20.952;2022-07-22T08:01:11;14.23;;;7.35;;
34317;SDS011;20582;52.196;20.952;2022-07-22T08:03:37;15.43;;;7.32;;
34317;SDS011;20582;52.196;20.952;2022-07-22T08:06:03;16.88;;;7.70;;
34317;SDS011;20582;52.196;20.952;2022-07-22T08:08:29;14.95;;;7.55;;
34317;SDS011;20582;52.196;20.952;2022-07-22T08:10:55;17.88;;;8.35;;
34317;SDS011;20582;52.196;20.952;2022-07-22T08:13:21;18.42;;;8.75;;
34317;SDS011;20582;52.196;20.952;2022-07-22T08:15:47;18.40;;;9.80;;
34317;SDS011;20582;52.196;20.952;2022-07-22T08:18:13;17.67;;;9.85;;
34317;SDS011;20582;52.196;20.952;2022-07-22T08:20:39;14.85;;;9.93;;
34317;SDS011;20582;52.196;20.952;2022-07-22T08:23:05;17.85;;;9.43;;
34317;SDS011;20582;52.196;20.952;2022-07-22T08:25:31;22.00;;;10.77;;
34317;SDS011;20582;52.196;20.952;2022-07-22T08:27:58;16.20;;;9.45;;
34317;SDS011;20582;52.196;20.952;2022-07-22T08:30:24;17.80;;;10.90;;
34317;SDS011;20582;52.196;20.952;2022-07-22T08:32:52;20.95;;;10.68;;
34317;SDS011;20582;52.196;20.952;2022-07-22T08:35:19;19.52;;;10.60;;
34317;SDS011;20582;52.196;20.952;2022-07-22T08:37:46;21.10;;;11.23;;
34317;SDS011;20582;52.196;20.952;2022-07-22T08:40:12;21.17;;;12.18;;
34317;SDS011;20582;52.196;20.952;2022-07-22T08:42:39;17.80;;;11.35;;
34317;SDS011;20582;52.196;20.952;2022-07-22T08:45:06;18.50;;;11.23;;
34317;SDS011;20582;52.196;20.952;2022-07-22T08:47:32;20.42;;;12.02;;
34317;SDS011;20582;52.196;20.952;2022-07-22T08:49:58;22.10;;;12.35;;
34317;SDS011;20582;52.196;20.952;2022-07-22T08:52:24;23.13;;;12.05;;
34317;SDS011;20582;52.196;20.952;2022-07-22T08:54:50;24.75;;;11.88;;
34317;SDS011;20582;52.196;20.952;2022-07-22T08:57:17;20.23;;;12.73;;
34317;SDS011;20582;52.196;20.952;2022-07-22T08:59:53;19.35;;;11.65;;
34317;SDS011;20582;52.196;20.952;2022-07-22T09:02:19;22.52;;;11.73;;
34317;SDS011;20582;52.196;20.952;2022-07-22T09:07:25;21.20;;;12.45;;
34317;SDS011;20582;52.196;20.952;2022-07-22T09:09:51;16.20;;;10.98;;
34317;SDS011;20582;52.196;20.952;2022-07-22T09:12:17;20.95;;;11.25;;
34317;SDS011;20582;52.196;20.952;2022-07-22T09:17:23;19.25;;;10.75;;
34317;SDS011;20582;52.196;20.952;2022-07-22T09:19:49;21.67;;;11.45;;
34317;SDS011;20582;52.196;20.952;2022-07-22T09:25:16;18.23;;;11.13;;
34317;SDS011;20582;52.196;20.952;2022-07-22T09:27:43;21.10;;;11.30;;
34317;SDS011;20582;52.196;20.952;2022-07-22T09:30:11;17.02;;;10.57;;
34317;SDS011;20582;52.196;20.952;2022-07-22T09:32:41;14.05;;;10.90;;
34317;SDS011;20582;52.196;20.952;2022-07-22T09:35:08;19.60;;;11.13;;
34317;SDS011;20582;52.196;20.952;2022-07-22T09:37:35;16.23;;;10.90;;
34317;SDS011;20582;52.196;20.952;2022-07-22T09:40:17;15.82;;;11.57;;
34317;SDS011;20582;52.196;20.952;2022-07-22T09:42:47;17.77;;;11.55;;
34317;SDS011;20582;52.196;20.952;2022-07-22T09:45:14;16.80;;;11.95;;
34317;SDS011;20582;52.196;20.952;2022-07-22T09:47:40;20.40;;;12.05;;
34317;SDS011;20582;52.196;20.952;2022-07-22T09:50:13;16.23;;;11.43;;
34317;SDS011;20582;52.196;20.952;2022-07-22T09:52:40;15.13;;;11.40;;
34317;SDS011;20582;52.196;20.952;2022-07-22T09:55:07;15.20;;;10.88;;
34317;SDS011;20582;52.196;20.952;2022-07-22T09:57:33;17.58;;;11.43;;
34317;SDS011;20582;52.196;20.952;2022-07-22T09:59:59;19.00;;;10.82;;
34317;SDS011;20582;52.196;20.952;2022-07-22T10:02:26;14.73;;;11.15;;
34317;SDS011;20582;52.196;20.952;2022-07-22T10:04:53;14.05;;;10.93;;
34317;SDS011;20582;52.196;20.952;2022-07-22T10:07:20;14.30;;;10.60;;
34317;SDS011;20582;52.196;20.952;2022-07-22T10:09:47;14.05;;;10.65;;
34317;SDS011;20582;52.196;20.952;2022-07-22T10:12:14;15.60;;;10.63;;
34317;SDS011;20582;52.196;20.952;2022-07-22T10:14:41;15.43;;;11.05;;
34317;SDS011;20582;52.196;20.952;2022-07-22T10:17:07;14.63;;;11.10;;
34317;SDS011;20582;52.196;20.952;2022-07-22T10:19:33;16.52;;;11.65;;
34317;SDS011;20582;52.196;20.952;2022-07-22T10:22:00;14.88;;;11.13;;
34317;SDS011;20582;52.196;20.952;2022-07-22T10:24:26;16.67;;;11.43;;
34317;SDS011;20582;52.196;20.952;2022-07-22T10:26:53;15.25;;;11.00;;
34317;SDS011;20582;52.196;20.952;2022-07-22T10:29:26;15.10;;;11.30;;
34317;SDS011;20582;52.196;20.952;2022-07-22T10:34:37;19.60;;;12.27;;
34317;SDS011;20582;52.196;20.952;2022-07-22T10:37:03;15.50;;;11.38;;
34317;SDS011;20582;52.196;20.952;2022-07-22T10:39:29;14.07;;;11.40;;
34317;SDS011;20582;52.196;20.952;2022-07-22T10:41:55;13.82;;;12.00;;
34317;SDS011;20582;52.196;20.952;2022-07-22T10:47:06;14.35;;;12.18;;
34317;SDS011;20582;52.196;20.952;2022-07-22T10:49:32;14.70;;;12.07;;
34317;SDS011;20582;52.196;20.952;2022-07-22T10:54:33;15.25;;;12.30;;
34317;SDS011;20582;52.196;20.952;2022-07-22T10:57:00;16.95;;;12.40;;
34317;SDS011;20582;52.196;20.952;2022-07-22T10:59:26;16.25;;;11.77;;
34317;SDS011;20582;52.196;20.952;2022-07-22T11:01:52;13.70;;;12.30;;
34317;SDS011;20582;52.196;20.952;2022-07-22T11:04:24;15.13;;;12.57;;
34317;SDS011;20582;52.196;20.952;2022-07-22T11:06:51;15.70;;;12.25;;
34317;SDS011;20582;52.196;20.952;2022-07-22T11:09:17;14.80;;;12.13;;
34317;SDS011;20582;52.196;20.952;2022-07-22T11:11:45;16.55;;;12.93;;
34317;SDS011;20582;52.196;20.952;2022-07-22T11:14:15;14.27;;;12.70;;
34317;SDS011;20582;52.196;20.952;2022-07-22T11:16:41;16.63;;;13.38;;
34317;SDS011;20582;52.196;20.952;2022-07-22T11:19:08;14.32;;;12.65;;
34317;SDS011;20582;52.196;20.952;2022-07-22T11:21:34;15.57;;;12.88;;
34317;SDS011;20582;52.196;20.952;2022-07-22T11:24:01;13.90;;;11.77;;
34317;SDS011;20582;52.196;20.952;2022-07-22T11:28:59;16.05;;;11.73;;
34317;SDS011;20582;52.196;20.952;2022-07-22T11:31:25;12.77;;;11.43;;
34317;SDS011;20582;52.196;20.952;2022-07-22T11:33:51;13.77;;;12.13;;
34317;SDS011;20582;52.196;20.952;2022-07-22T11:36:17;15.95;;;12.40;;
34317;SDS011;20582;52.196;20.952;2022-07-22T11:38:47;13.95;;;12.55;;
34317;SDS011;20582;52.196;20.952;2022-07-22T11:41:15;16.20;;;13.38;;
34317;SDS011;20582;52.196;20.952;2022-07-22T11:43:45;12.98;;;11.48;;
34317;SDS011;20582;52.196;20.952;2022-07-22T11:46:12;14.52;;;11.52;;
34317;SDS011;20582;52.196;20.952;2022-07-22T11:48:38;15.45;;;10.52;;
34317;SDS011;20582;52.196;20.952;2022-07-22T11:51:05;16.92;;;11.05;;
34317;SDS011;20582;52.196;20.952;2022-07-22T11:53:31;16.58;;;11.38;;
34317;SDS011;20582;52.196;20.952;2022-07-22T11:55:58;15.02;;;10.85;;
34317;SDS011;20582;52.196;20.952;2022-07-22T11:58:37;16.17;;;10.55;;
34317;SDS011;20582;52.196;20.952;2022-07-22T12:01:04;16.35;;;11.18;;
34317;SDS011;20582;52.196;20.952;2022-07-22T12:03:31;18.38;;;11.35;;
34317;SDS011;20582;52.196;20.952;2022-07-22T12:05:58;16.13;;;11.57;;
34317;SDS011;20582;52.196;20.952;2022-07-22T12:08:24;15.48;;;11.60;;
34317;SDS011;20582;52.196;20.952;2022-07-22T12:10:50;15.23;;;10.45;;
34317;SDS011;20582;52.196;20.952;2022-07-22T12:13:16;14.93;;;11.45;;
34317;SDS011;20582;52.196;20.952;2022-07-22T12:15:42;15.93;;;11.20;;
34317;SDS011;20582;52.196;20.952;2022-07-22T12:18:15;16.08;;;11.25;;
34317;SDS011;20582;52.196;20.952;2022-07-22T12:20:45;17.80;;;11.23;;
34317;SDS011;20582;52.196;20.952;2022-07-22T12:23:11;14.05;;;10.25;;
34317;SDS011;20582;52.196;20.952;2022-07-22T12:25:54;14.68;;;10.23;;
34317;SDS011;20582;52.196;20.952;2022-07-22T12:28:21;16.77;;;11.40;;
34317;SDS011;20582;52.196;20.952;2022-07-22T12:30:48;13.88;;;10.25;;
34317;SDS011;20582;52.196;20.952;2022-07-22T12:33:14;13.48;;;9.80;;
34317;SDS011;20582;52.196;20.952;2022-07-22T12:35:41;13.45;;;9.95;;
34317;SDS011;20582;52.196;20.952;2022-07-22T12:38:08;16.90;;;9.77;;
34317;SDS011;20582;52.196;20.952;2022-07-22T12:40:34;11.82;;;9.63;;
34317;SDS011;20582;52.196;20.952;2022-07-22T12:43:01;13.98;;;9.57;;
34317;SDS011;20582;52.196;20.952;2022-07-22T12:45:28;14.95;;;10.38;;
34317;SDS011;20582;52.196;20.952;2022-07-22T12:50:31;16.80;;;10.20;;
34317;SDS011;20582;52.196;20.952;2022-07-22T12:53:02;12.10;;;9.15;;
34317;SDS011;20582;52.196;20.952;2022-07-22T12:55:29;13.55;;;9.60;;
34317;SDS011;20582;52.196;20.952;2022-07-22T12:57:55;13.48;;;9.77;;
34317;SDS011;20582;52.196;20.952;2022-07-22T13:00:23;13.48;;;9.77;;
34317;SDS011;20582;52.196;20.952;2022-07-22T13:02:49;14.10;;;9.52;;
34317;SDS011;20582;52.196;20.952;2022-07-22T13:05:16;10.55;;;9.20;;
34317;SDS011;20582;52.196;20.952;2022-07-22T13:07:42;13.50;;;9.88;;
34317;SDS011;20582;52.196;20.952;2022-07-22T13:10:09;13.63;;;9.60;;
34317;SDS011;20582;52.196;20.952;2022-07-22T13:12:35;10.93;;;9.60;;
34317;SDS011;20582;52.196;20.952;2022-07-22T13:15:01;13.77;;;9.93;;
34317;SDS011;20582;52.196;20.952;2022-07-22T13:17:27;11.93;;;9.65;;
34317;SDS011;20582;52.196;20.952;2022-07-22T13:19:53;11.90;;;10.60;;
34317;SDS011;20582;52.196;20.952;2022-07-22T13:22:19;15.70;;;10.68;;
34317;SDS011;20582;52.196;20.952;2022-07-22T13:24:45;15.57;;;9.90;;
34317;SDS011;20582;52.196;20.952;2022-07-22T13:27:11;15.20;;;9.05;;
34317;SDS011;20582;52.196;20.952;2022-07-22T13:29:38;13.95;;;9.23;;
34317;SDS011;20582;52.196;20.952;2022-07-22T13:32:04;19.25;;;10.85;;
34317;SDS011;20582;52.196;20.952;2022-07-22T13:34:30;13.10;;;10.32;;
34317;SDS011;20582;52.196;20.952;2022-07-22T13:36:56;13.48;;;10.00;;
34317;SDS011;20582;52.196;20.952;2022-07-22T13:39:22;13.43;;;9.95;;
34317;SDS011;20582;52.196;20.952;2022-07-22T13:41:49;13.32;;;9.70;;
34317;SDS011;20582;52.196;20.952;2022-07-22T13:44:15;14.43;;;10.25;;
34317;SDS011;20582;52.196;20.952;2022-07-22T13:46:41;14.43;;;9.93;;
34317;SDS011;20582;52.196;20.952;2022-07-22T13:49:07;12.77;;;9.90;;
34317;SDS011;20582;52.196;20.952;2022-07-22T13:51:33;14.23;;;10.25;;
34317;SDS011;20582;52.196;20.952;2022-07-22T13:53:59;12.13;;;10.38;;
34317;SDS011;20582;52.196;20.952;2022-07-22T13:56:25;13.40;;;10.65;;
34317;SDS011;20582;52.196;20.952;2022-07-22T13:58:51;15.35;;;9.50;;
34317;SDS011;20582;52.196;20.952;2022-07-22T14:01:17;16.55;;;10.13;;
34317;SDS011;20582;52.196;20.952;2022-07-22T14:03:43;14.73;;;9.15;;
34317;SDS011;20582;52.196;20.952;2022-07-22T14:06:09;14.00;;;9.82;;
34317;SDS011;20582;52.196;20.952;2022-07-22T14:08:35;13.63;;;10.40;;
34317;SDS011;20582;52.196;20.952;2022-07-22T14:11:02;13.98;;;10.25;;
34317;SDS011;20582;52.196;20.952;2022-07-22T14:13:28;13.43;;;10.38;;
34317;SDS011;20582;52.196;20.952;2022-07-22T14:15:54;16.63;;;10.05;;
34317;SDS011;20582;52.196;20.952;2022-07-22T14:18:20;13.18;;;10.13;;
34317;SDS011;20582;52.196;20.952;2022-07-22T14:20:46;17.40;;;10.27;;
34317;SDS011;20582;52.196;20.952;2022-07-22T14:23:12;16.05;;;10.40;;
34317;SDS011;20582;52.196;20.952;2022-07-22T14:25:40;16.45;;;10.07;;
34317;SDS011;20582;52.196;20.952;2022-07-22T14:28:06;12.73;;;10.30;;
34317;SDS011;20582;52.196;20.952;2022-07-22T14:30:32;12.90;;;10.40;;
34317;SDS011;20582;52.196;20.952;2022-07-22T14:32:59;15.07;;;10.60;;
34317;SDS011;20582;52.196;20.952;2022-07-22T14:35:26;15.68;;;10.50;;